sensor_id;sensor_type;location;lat;lon;timestamp;pressure;altitude;pressure_sealevel;temperature;humidity
54022;BME280;39936;51.058;17.220;2023-08-21T00:03:23;102099.94;;;20.69;100.00
54022;BME280;39936;51.058;17.220;2023-08-21T00:11:34;102095.96;;;20.60;100.00
54022;BME280;39936;51.058;17.220;2023-08-21T00:15:23;102098.00;;;20.56;100.00
54022;BME280;39936;51.058;17.220;2023-08-21T00:19:34;102094.13;;;20.52;100.00
54022;BME280;39936;51.058;17.220;2023-08-21T00:23:04;102093.52;;;20.48;100.00
54022;BME280;39936;51.058;17.220;2023-08-21T00:26:50;102090.53;;;20.43;100.00
54022;BME280;39936;51.058;17.220;2023-08-21T00:31:02;102093.83;;;20.46;100.00
54022;BME280;39936;51.058;17.220;2023-08-21T00:38:23;102097.29;;;20.40;100.00
54022;BME280;39936;51.058;17.220;2023-08-21T00:42:09;102089.04;;;20.24;100.00
54022;BME280;39936;51.058;17.220;2023-08-21T00:46:02;102093.71;;;20.20;100.00
54022;BME280;39936;51.058;17.220;2023-08-21T00:54:20;102098.13;;;20.29;100.00
54022;BME280;39936;51.058;17.220;2023-08-21T00:57:56;102091.38;;;20.25;100.00
54022;BME280;39936;51.058;17.220;2023-08-21T01:05:59;102087.45;;;20.16;100.00
54022;BME280;39936;51.058;17.220;2023-08-21T01:18:07;102072.47;;;20.18;100.00
54022;BME280;39936;51.058;17.220;2023-08-21T01:21:41;102067.09;;;20.24;100.00
54022;BME280;39936;51.058;17.220;2023-08-21T01:29:07;102067.82;;;20.33;100.00
54022;BME280;39936;51.058;17.220;2023-08-21T01:36:25;102071.59;;;20.34;100.00
54022;BME280;39936;51.058;17.220;2023-08-21T01:40:22;102077.40;;;20.40;100.00
54022;BME280;39936;51.058;17.220;2023-08-21T01:43:56;102077.13;;;20.45;100.00
54022;BME280;39936;51.058;17.220;2023-08-21T01:48:05;102074.39;;;20.41;100.00
54022;BME280;39936;51.058;17.220;2023-08-21T01:51:32;102071.01;;;20.37;100.00
54022;BME280;39936;51.058;17.220;2023-08-21T01:55:26;102071.91;;;20.37;100.00
54022;BME280;39936;51.058;17.220;2023-08-21T01:59:07;102067.41;;;20.39;100.00
54022;BME280;39936;51.058;17.220;2023-08-21T02:06:38;102079.40;;;20.29;100.00
54022;BME280;39936;51.058;17.220;2023-08-21T02:10:15;102094.32;;;20.35;100.00
54022;BME280;39936;51.058;17.220;2023-08-21T02:14:06;102100.86;;;20.36;100.00
54022;BME280;39936;51.058;17.220;2023-08-21T02:17:51;102103.41;;;20.36;100.00
54022;BME280;39936;51.058;17.220;2023-08-21T02:21:39;102092.09;;;20.34;100.00
54022;BME280;39936;51.058;17.220;2023-08-21T02:25:41;102104.02;;;20.26;100.00
54022;BME280;39936;51.058;17.220;2023-08-21T02:29:45;102112.41;;;20.29;100.00
54022;BME280;39936;51.058;17.220;2023-08-21T02:33:47;102116.12;;;20.30;100.00
54022;BME280;39936;51.058;17.220;2023-08-21T02:37:25;102112.23;;;20.31;100.00
54022;BME280;39936;51.058;17.220;2023-08-21T02:41:21;102119.51;;;20.33;100.00
54022;BME280;39936;51.058;17.220;2023-08-21T02:45:45;102130.16;;;20.31;100.00
54022;BME280;39936;51.058;17.220;2023-08-21T02:53:20;102161.84;;;20.42;100.00
54022;BME280;39936;51.058;17.220;2023-08-21T03:13:57;102201.87;;;20.90;100.00
54022;BME280;39936;51.058;17.220;2023-08-21T03:17:35;102192.49;;;20.93;100.00
54022;BME280;39936;51.058;17.220;2023-08-21T03:25:35;102159.30;;;20.94;100.00
54022;BME280;39936;51.058;17.220;2023-08-21T03:29:32;102147.98;;;20.96;100.00
54022;BME280;39936;51.058;17.220;2023-08-21T03:33:12;102137.14;;;20.95;100.00
54022;BME280;39936;51.058;17.220;2023-08-21T03:37:14;102122.67;;;20.90;100.00
54022;BME280;39936;51.058;17.220;2023-08-21T03:41:09;102131.15;;;20.99;100.00
54022;BME280;39936;51.058;17.220;2023-08-21T03:44:30;102131.52;;;21.00;100.00
54022;BME280;39936;51.058;17.220;2023-08-21T03:48:13;102138.34;;;21.01;100.00
54022;BME280;39936;51.058;17.220;2023-08-21T03:55:49;102151.23;;;20.82;100.00
54022;BME280;39936;51.058;17.220;2023-08-21T03:59:25;102161.04;;;20.87;100.00
54022;BME280;39936;51.058;17.220;2023-08-21T04:02:57;102168.25;;;20.85;100.00
54022;BME280;39936;51.058;17.220;2023-08-21T04:07:10;102178.35;;;20.87;100.00
54022;BME280;39936;51.058;17.220;2023-08-21T04:10:28;102165.23;;;20.80;100.00
54022;BME280;39936;51.058;17.220;2023-08-21T04:14:44;102165.42;;;20.65;100.00
54022;BME280;39936;51.058;17.220;2023-08-21T04:18:23;102166.89;;;20.63;100.00
54022;BME280;39936;51.058;17.220;2023-08-21T04:22:13;102169.41;;;20.63;100.00
54022;BME280;39936;51.058;17.220;2023-08-21T04:26:27;102166.63;;;20.62;100.00
54022;BME280;39936;51.058;17.220;2023-08-21T04:30:10;102157.94;;;20.60;100.00
54022;BME280;39936;51.058;17.220;2023-08-21T04:34:00;102154.34;;;20.55;100.00
54022;BME280;39936;51.058;17.220;2023-08-21T04:37:49;102179.57;;;20.58;100.00
54022;BME280;39936;51.058;17.220;2023-08-21T04:41:28;102193.27;;;20.55;100.00
54022;BME280;39936;51.058;17.220;2023-08-21T04:45:50;102202.96;;;20.54;100.00
54022;BME280;39936;51.058;17.220;2023-08-21T04:54:04;102197.82;;;20.21;100.00
54022;BME280;39936;51.058;17.220;2023-08-21T04:57:53;102197.84;;;20.06;100.00
54022;BME280;39936;51.058;17.220;2023-08-21T05:01:33;102204.22;;;19.99;100.00
54022;BME280;39936;51.058;17.220;2023-08-21T05:05:23;102191.52;;;19.91;100.00
54022;BME280;39936;51.058;17.220;2023-08-21T05:09:00;102195.46;;;19.84;100.00
54022;BME280;39936;51.058;17.220;2023-08-21T05:17:04;102205.07;;;19.73;100.00
54022;BME280;39936;51.058;17.220;2023-08-21T05:24:31;102219.63;;;19.75;100.00
54022;BME280;39936;51.058;17.220;2023-08-21T05:28:11;102225.47;;;19.75;100.00
54022;BME280;39936;51.058;17.220;2023-08-21T05:31:50;102227.16;;;19.75;100.00
54022;BME280;39936;51.058;17.220;2023-08-21T05:35:38;102226.85;;;19.67;100.00
54022;BME280;39936;51.058;17.220;2023-08-21T05:38:56;102222.86;;;19.66;100.00
54022;BME280;39936;51.058;17.220;2023-08-21T05:42:16;102225.86;;;19.62;100.00
54022;BME280;39936;51.058;17.220;2023-08-21T05:45:33;102240.83;;;19.58;100.00
54022;BME280;39936;51.058;17.220;2023-08-21T05:48:48;102239.28;;;19.64;100.00
54022;BME280;39936;51.058;17.220;2023-08-21T05:52:28;102226.85;;;19.60;100.00
54022;BME280;39936;51.058;17.220;2023-08-21T05:55:54;102233.62;;;19.59;100.00
54022;BME280;39936;51.058;17.220;2023-08-21T05:59:31;102229.25;;;19.53;100.00
54022;BME280;39936;51.058;17.220;2023-08-21T06:03:25;102230.23;;;19.60;100.00
54022;BME280;39936;51.058;17.220;2023-08-21T06:10:34;102225.87;;;19.78;100.00
54022;BME280;39936;51.058;17.220;2023-08-21T06:14:10;102223.98;;;19.93;100.00
54022;BME280;39936;51.058;17.220;2023-08-21T06:17:29;102230.85;;;20.08;100.00
54022;BME280;39936;51.058;17.220;2023-08-21T06:21:37;102204.87;;;20.01;100.00
54022;BME280;39936;51.058;17.220;2023-08-21T06:25:39;102225.02;;;20.33;100.00
54022;BME280;39936;51.058;17.220;2023-08-21T06:29:04;102219.30;;;20.54;100.00
54022;BME280;39936;51.058;17.220;2023-08-21T06:32:20;102216.88;;;20.72;100.00
54022;BME280;39936;51.058;17.220;2023-08-21T06:36:43;102238.63;;;20.94;100.00
54022;BME280;39936;51.058;17.220;2023-08-21T06:40:24;102249.23;;;21.25;100.00
54022;BME280;39936;51.058;17.220;2023-08-21T06:44:05;102252.37;;;21.61;100.00
54022;BME280;39936;51.058;17.220;2023-08-21T06:48:01;102263.23;;;21.51;100.00
54022;BME280;39936;51.058;17.220;2023-08-21T06:55:33;102267.38;;;21.05;100.00
54022;BME280;39936;51.058;17.220;2023-08-21T06:58:56;102271.55;;;20.95;100.00
54022;BME280;39936;51.058;17.220;2023-08-21T07:02:39;102271.54;;;20.92;100.00
54022;BME280;39936;51.058;17.220;2023-08-21T07:05:57;102256.94;;;21.11;100.00
54022;BME280;39936;51.058;17.220;2023-08-21T07:09:40;102249.69;;;21.18;100.00
54022;BME280;39936;51.058;17.220;2023-08-21T07:13:22;102259.62;;;21.14;100.00
54022;BME280;39936;51.058;17.220;2023-08-21T07:17:28;102272.77;;;21.41;100.00
54022;BME280;39936;51.058;17.220;2023-08-21T07:25:27;102261.35;;;21.72;96.35
54022;BME280;39936;51.058;17.220;2023-08-21T07:29:19;102279.60;;;22.04;97.77
54022;BME280;39936;51.058;17.220;2023-08-21T07:33:27;102279.81;;;22.35;92.04
54022;BME280;39936;51.058;17.220;2023-08-21T07:37:28;102292.67;;;22.33;87.40
54022;BME280;39936;51.058;17.220;2023-08-21T07:40:51;102285.79;;;22.45;89.98
54022;BME280;39936;51.058;17.220;2023-08-21T07:44:14;102292.81;;;22.27;88.50
54022;BME280;39936;51.058;17.220;2023-08-21T07:49:33;102298.27;;;22.05;89.51
54022;BME280;39936;51.058;17.220;2023-08-21T07:56:51;102288.53;;;21.59;90.95
54022;BME280;39936;51.058;17.220;2023-08-21T08:00:10;102291.06;;;21.55;92.29
54022;BME280;39936;51.058;17.220;2023-08-21T08:03:49;102295.05;;;21.53;90.54
54022;BME280;39936;51.058;17.220;2023-08-21T08:07:10;102289.22;;;21.47;93.48
54022;BME280;39936;51.058;17.220;2023-08-21T08:11:09;102293.36;;;21.58;95.34
54022;BME280;39936;51.058;17.220;2023-08-21T08:14:58;102299.12;;;21.69;96.63
54022;BME280;39936;51.058;17.220;2023-08-21T08:19:01;102292.88;;;21.93;94.05
54022;BME280;39936;51.058;17.220;2023-08-21T08:22:12;102294.49;;;21.86;94.99
54022;BME280;39936;51.058;17.220;2023-08-21T08:25:54;102291.34;;;22.18;94.06
54022;BME280;39936;51.058;17.220;2023-08-21T08:30:08;102286.71;;;22.52;89.58
54022;BME280;39936;51.058;17.220;2023-08-21T08:33:59;102260.80;;;22.54;86.43
54022;BME280;39936;51.058;17.220;2023-08-21T08:38:11;102269.98;;;23.05;85.66
54022;BME280;39936;51.058;17.220;2023-08-21T08:45:45;102232.51;;;22.73;81.52
54022;BME280;39936;51.058;17.220;2023-08-21T08:49:14;102231.72;;;22.72;82.68
54022;BME280;39936;51.058;17.220;2023-08-21T08:52:38;102253.41;;;23.14;82.81
54022;BME280;39936;51.058;17.220;2023-08-21T08:57:21;102227.75;;;23.22;79.93
54022;BME280;39936;51.058;17.220;2023-08-21T09:01:05;102259.40;;;23.49;77.70
54022;BME280;39936;51.058;17.220;2023-08-21T09:04:54;102263.52;;;23.47;78.07
54022;BME280;39936;51.058;17.220;2023-08-21T09:08:56;102258.09;;;23.64;79.42
54022;BME280;39936;51.058;17.220;2023-08-21T09:17:02;102250.60;;;23.74;79.52
54022;BME280;39936;51.058;17.220;2023-08-21T09:20:43;102255.80;;;24.15;77.59
54022;BME280;39936;51.058;17.220;2023-08-21T09:24:02;102254.26;;;24.51;75.57
54022;BME280;39936;51.058;17.220;2023-08-21T09:28:27;102247.26;;;24.82;74.81
54022;BME280;39936;51.058;17.220;2023-08-21T09:31:48;102235.63;;;25.38;74.67
54022;BME280;39936;51.058;17.220;2023-08-21T09:35:26;102239.19;;;24.99;71.19
54022;BME280;39936;51.058;17.220;2023-08-21T09:42:42;102245.09;;;25.21;67.83
54022;BME280;39936;51.058;17.220;2023-08-21T09:46:15;102241.59;;;24.97;66.61
54022;BME280;39936;51.058;17.220;2023-08-21T09:49:55;102238.55;;;24.76;69.96
54022;BME280;39936;51.058;17.220;2023-08-21T09:53:16;102242.63;;;24.39;71.88
54022;BME280;39936;51.058;17.220;2023-08-21T09:57:03;102240.37;;;24.44;74.64
54022;BME280;39936;51.058;17.220;2023-08-21T10:00:40;102234.52;;;24.31;68.70
54022;BME280;39936;51.058;17.220;2023-08-21T10:04:28;102203.15;;;24.32;73.01
54022;BME280;39936;51.058;17.220;2023-08-21T10:08:49;102223.24;;;24.46;67.19
54022;BME280;39936;51.058;17.220;2023-08-21T10:12:17;102215.38;;;24.50;69.33
54022;BME280;39936;51.058;17.220;2023-08-21T10:15:38;102219.55;;;24.59;65.50
54022;BME280;39936;51.058;17.220;2023-08-21T10:19:14;102223.86;;;24.43;63.16
54022;BME280;39936;51.058;17.220;2023-08-21T10:22:55;102217.56;;;24.24;64.81
54022;BME280;39936;51.058;17.220;2023-08-21T10:30:15;102210.70;;;24.34;63.92
54022;BME280;39936;51.058;17.220;2023-08-21T10:34:09;102217.91;;;24.50;64.48
54022;BME280;39936;51.058;17.220;2023-08-21T10:42:08;102219.32;;;24.84;66.51
54022;BME280;39936;51.058;17.220;2023-08-21T10:46:01;102213.55;;;25.21;66.12
54022;BME280;39936;51.058;17.220;2023-08-21T10:49:24;102211.83;;;25.20;64.76
54022;BME280;39936;51.058;17.220;2023-08-21T10:52:51;102207.25;;;25.17;63.74
54022;BME280;39936;51.058;17.220;2023-08-21T10:56:39;102213.05;;;25.30;64.35
54022;BME280;39936;51.058;17.220;2023-08-21T11:00:23;102216.66;;;25.22;60.90
54022;BME280;39936;51.058;17.220;2023-08-21T11:03:49;102212.85;;;25.08;63.95
54022;BME280;39936;51.058;17.220;2023-08-21T11:07:09;102215.97;;;25.08;63.90
54022;BME280;39936;51.058;17.220;2023-08-21T11:14:55;102217.29;;;24.81;63.79
54022;BME280;39936;51.058;17.220;2023-08-21T11:18:52;102218.37;;;24.68;64.37
54022;BME280;39936;51.058;17.220;2023-08-21T11:22:34;102210.97;;;24.66;64.10
54022;BME280;39936;51.058;17.220;2023-08-21T11:34:21;102199.17;;;25.34;62.56
54022;BME280;39936;51.058;17.220;2023-08-21T11:38:19;102198.12;;;25.20;62.00
54022;BME280;39936;51.058;17.220;2023-08-21T11:41:54;102195.25;;;24.99;62.52
54022;BME280;39936;51.058;17.220;2023-08-21T11:45:13;102194.25;;;24.75;64.14
54022;BME280;39936;51.058;17.220;2023-08-21T11:48:38;102169.10;;;24.64;66.75
54022;BME280;39936;51.058;17.220;2023-08-21T11:52:58;102181.16;;;24.74;65.57
54022;BME280;39936;51.058;17.220;2023-08-21T11:56:48;102185.58;;;24.79;67.92
54022;BME280;39936;51.058;17.220;2023-08-21T12:00:10;102179.02;;;25.02;66.00
54022;BME280;39936;51.058;17.220;2023-08-21T12:03:37;102165.52;;;25.22;66.34
54022;BME280;39936;51.058;17.220;2023-08-21T12:07:14;102180.83;;;25.33;65.03
54022;BME280;39936;51.058;17.220;2023-08-21T12:10:41;102181.45;;;25.46;63.83
54022;BME280;39936;51.058;17.220;2023-08-21T12:13:58;102174.80;;;25.62;65.90
54022;BME280;39936;51.058;17.220;2023-08-21T12:17:14;102167.97;;;25.77;64.27
54022;BME280;39936;51.058;17.220;2023-08-21T12:20:53;102169.59;;;25.66;64.06
54022;BME280;39936;51.058;17.220;2023-08-21T12:24:10;102169.85;;;25.56;63.11
54022;BME280;39936;51.058;17.220;2023-08-21T12:27:29;102170.91;;;25.85;65.74
54022;BME280;39936;51.058;17.220;2023-08-21T12:34:45;102164.66;;;26.56;61.21
54022;BME280;39936;51.058;17.220;2023-08-21T12:38:10;102152.32;;;26.87;60.84
54022;BME280;39936;51.058;17.220;2023-08-21T12:41:33;102145.57;;;27.07;60.26
54022;BME280;39936;51.058;17.220;2023-08-21T12:44:50;102145.48;;;26.53;60.19
54022;BME280;39936;51.058;17.220;2023-08-21T12:48:43;102132.50;;;26.06;61.16
54022;BME280;39936;51.058;17.220;2023-08-21T12:52:23;102137.08;;;26.14;62.69
54022;BME280;39936;51.058;17.220;2023-08-21T12:56:49;102135.55;;;26.38;60.57
54022;BME280;39936;51.058;17.220;2023-08-21T13:00:11;102131.72;;;26.47;60.55
54022;BME280;39936;51.058;17.220;2023-08-21T13:03:33;102131.55;;;26.40;60.78
54022;BME280;39936;51.058;17.220;2023-08-21T13:07:11;102102.65;;;26.29;61.24
54022;BME280;39936;51.058;17.220;2023-08-21T13:11:15;102121.36;;;26.36;60.07
54022;BME280;39936;51.058;17.220;2023-08-21T13:14:53;102126.22;;;26.43;60.83
54022;BME280;39936;51.058;17.220;2023-08-21T13:18:08;102122.82;;;26.37;59.53
54022;BME280;39936;51.058;17.220;2023-08-21T13:22:08;102121.53;;;26.46;61.45
54022;BME280;39936;51.058;17.220;2023-08-21T13:29:16;102113.06;;;26.96;60.03
54022;BME280;39936;51.058;17.220;2023-08-21T13:33:28;102107.36;;;27.36;60.09
54022;BME280;39936;51.058;17.220;2023-08-21T13:37:14;102107.09;;;27.70;58.21
54022;BME280;39936;51.058;17.220;2023-08-21T13:41:38;102098.82;;;27.99;58.23
54022;BME280;39936;51.058;17.220;2023-08-21T13:45:18;102098.43;;;27.81;57.09
54022;BME280;39936;51.058;17.220;2023-08-21T13:48:36;102100.96;;;27.90;56.75
54022;BME280;39936;51.058;17.220;2023-08-21T13:51:54;102102.32;;;27.68;57.70
54022;BME280;39936;51.058;17.220;2023-08-21T13:55:15;102100.40;;;27.62;58.38
54022;BME280;39936;51.058;17.220;2023-08-21T13:58:56;102097.63;;;27.85;58.21
54022;BME280;39936;51.058;17.220;2023-08-21T14:02:15;102093.82;;;27.89;57.75
54022;BME280;39936;51.058;17.220;2023-08-21T14:05:30;102088.26;;;27.23;59.09
54022;BME280;39936;51.058;17.220;2023-08-21T14:09:15;102107.65;;;27.07;60.75
54022;BME280;39936;51.058;17.220;2023-08-21T14:12:55;102087.87;;;26.96;59.21
54022;BME280;39936;51.058;17.220;2023-08-21T14:16:30;102095.50;;;27.00;61.31
54022;BME280;39936;51.058;17.220;2023-08-21T14:19:41;102088.66;;;26.80;60.19
54022;BME280;39936;51.058;17.220;2023-08-21T14:23:20;102092.02;;;26.99;60.46
54022;BME280;39936;51.058;17.220;2023-08-21T14:27:01;102084.50;;;27.32;59.35
54022;BME280;39936;51.058;17.220;2023-08-21T14:34:42;102077.50;;;26.87;61.56
54022;BME280;39936;51.058;17.220;2023-08-21T14:38:55;102078.79;;;27.01;60.81
54022;BME280;39936;51.058;17.220;2023-08-21T14:42:50;102079.58;;;26.89;56.65
54022;BME280;39936;51.058;17.220;2023-08-21T14:46:12;102076.25;;;27.14;60.65
54022;BME280;39936;51.058;17.220;2023-08-21T14:49:31;102073.24;;;27.48;59.50
54022;BME280;39936;51.058;17.220;2023-08-21T14:53:21;102067.51;;;27.70;57.87
54022;BME280;39936;51.058;17.220;2023-08-21T14:57:01;102064.12;;;27.53;57.44
54022;BME280;39936;51.058;17.220;2023-08-21T15:00:41;102048.00;;;27.00;60.32
54022;BME280;39936;51.058;17.220;2023-08-21T15:04:09;102074.48;;;27.09;61.07
54022;BME280;39936;51.058;17.220;2023-08-21T15:15:52;102059.66;;;27.76;58.22
54022;BME280;39936;51.058;17.220;2023-08-21T15:19:29;102055.20;;;27.86;58.53
54022;BME280;39936;51.058;17.220;2023-08-21T15:23:28;102053.46;;;27.98;58.89
54022;BME280;39936;51.058;17.220;2023-08-21T15:27:40;102051.87;;;27.60;59.63
54022;BME280;39936;51.058;17.220;2023-08-21T15:35:37;102043.78;;;27.86;58.69
54022;BME280;39936;51.058;17.220;2023-08-21T15:39:46;102052.74;;;27.37;56.94
54022;BME280;39936;51.058;17.220;2023-08-21T15:43:26;102052.90;;;27.15;58.18
54022;BME280;39936;51.058;17.220;2023-08-21T15:46:49;102057.06;;;27.02;60.14
54022;BME280;39936;51.058;17.220;2023-08-21T15:50:34;102055.98;;;27.09;60.66
54022;BME280;39936;51.058;17.220;2023-08-21T15:54:47;102056.54;;;26.90;60.47
54022;BME280;39936;51.058;17.220;2023-08-21T15:58:10;102064.16;;;26.87;57.72
54022;BME280;39936;51.058;17.220;2023-08-21T16:05:43;102058.48;;;26.80;59.76
54022;BME280;39936;51.058;17.220;2023-08-21T16:09:46;102058.80;;;26.83;57.35
54022;BME280;39936;51.058;17.220;2023-08-21T16:17:28;102059.72;;;26.64;56.51
54022;BME280;39936;51.058;17.220;2023-08-21T16:21:17;102067.84;;;26.40;57.03
54022;BME280;39936;51.058;17.220;2023-08-21T16:25:18;102072.70;;;26.43;57.42
54022;BME280;39936;51.058;17.220;2023-08-21T16:28:58;102071.67;;;26.40;57.49
54022;BME280;39936;51.058;17.220;2023-08-21T16:36:03;102061.74;;;26.49;57.62
54022;BME280;39936;51.058;17.220;2023-08-21T16:39:19;102062.28;;;26.40;57.86
54022;BME280;39936;51.058;17.220;2023-08-21T16:42:58;102062.63;;;26.40;57.81
54022;BME280;39936;51.058;17.220;2023-08-21T16:50:09;102057.02;;;26.46;57.30
54022;BME280;39936;51.058;17.220;2023-08-21T16:53:57;102057.50;;;26.45;55.71
54022;BME280;39936;51.058;17.220;2023-08-21T17:01:26;102057.37;;;26.32;57.24
54022;BME280;39936;51.058;17.220;2023-08-21T17:05:07;102069.52;;;26.39;57.49
54022;BME280;39936;51.058;17.220;2023-08-21T17:09:04;102069.73;;;26.52;57.63
54022;BME280;39936;51.058;17.220;2023-08-21T17:12:32;102070.15;;;26.76;57.64
54022;BME280;39936;51.058;17.220;2023-08-21T17:16:14;102070.44;;;27.02;57.93
54022;BME280;39936;51.058;17.220;2023-08-21T17:23:46;102065.51;;;27.61;57.17
54022;BME280;39936;51.058;17.220;2023-08-21T17:27:07;102062.66;;;27.70;56.64
54022;BME280;39936;51.058;17.220;2023-08-21T17:30:40;102049.40;;;27.69;57.42
54022;BME280;39936;51.058;17.220;2023-08-21T17:34:28;102066.39;;;27.87;57.52
54022;BME280;39936;51.058;17.220;2023-08-21T17:37:45;102070.73;;;27.89;58.59
54022;BME280;39936;51.058;17.220;2023-08-21T17:41:23;102066.87;;;27.71;58.37
54022;BME280;39936;51.058;17.220;2023-08-21T17:45:06;102066.16;;;27.28;59.19
54022;BME280;39936;51.058;17.220;2023-08-21T17:49:09;102064.06;;;26.82;60.87
54022;BME280;39936;51.058;17.220;2023-08-21T17:52:30;102073.47;;;26.23;62.80
54022;BME280;39936;51.058;17.220;2023-08-21T17:56:08;102074.52;;;25.91;63.08
54022;BME280;39936;51.058;17.220;2023-08-21T17:59:28;102048.50;;;25.46;62.86
54022;BME280;39936;51.058;17.220;2023-08-21T18:03:08;102075.82;;;25.17;65.38
54022;BME280;39936;51.058;17.220;2023-08-21T18:06:34;102083.60;;;24.89;66.78
54022;BME280;39936;51.058;17.220;2023-08-21T18:10:16;102085.21;;;24.65;68.32
54022;BME280;39936;51.058;17.220;2023-08-21T18:17:49;102083.81;;;24.21;70.30
54022;BME280;39936;51.058;17.220;2023-08-21T18:21:28;102088.63;;;24.00;72.22
54022;BME280;39936;51.058;17.220;2023-08-21T18:25:25;102090.66;;;23.70;77.30
54022;BME280;39936;51.058;17.220;2023-08-21T18:28:50;102088.86;;;23.44;78.70
54022;BME280;39936;51.058;17.220;2023-08-21T18:32:31;102093.94;;;23.16;79.06
54022;BME280;39936;51.058;17.220;2023-08-21T18:36:25;102105.49;;;23.00;79.66
54022;BME280;39936;51.058;17.220;2023-08-21T18:40:57;102104.79;;;22.84;80.08
54022;BME280;39936;51.058;17.220;2023-08-21T18:45:36;102110.40;;;22.68;80.71
54022;BME280;39936;51.058;17.220;2023-08-21T18:49:10;102118.59;;;22.51;82.66
54022;BME280;39936;51.058;17.220;2023-08-21T18:53:06;102115.20;;;22.35;83.26
54022;BME280;39936;51.058;17.220;2023-08-21T18:57:20;102103.80;;;22.09;84.25
54022;BME280;39936;51.058;17.220;2023-08-21T19:00:55;102122.56;;;22.01;87.21
54022;BME280;39936;51.058;17.220;2023-08-21T19:04:52;102134.20;;;21.83;87.07
54022;BME280;39936;51.058;17.220;2023-08-21T19:08:57;102129.52;;;21.65;87.64
54022;BME280;39936;51.058;17.220;2023-08-21T19:16:38;102139.20;;;21.45;89.23
54022;BME280;39936;51.058;17.220;2023-08-21T19:20:22;102119.88;;;21.22;91.43
54022;BME280;39936;51.058;17.220;2023-08-21T19:24:40;102140.27;;;21.24;92.47
54022;BME280;39936;51.058;17.220;2023-08-21T19:28:43;102137.95;;;21.11;92.76
54022;BME280;39936;51.058;17.220;2023-08-21T19:32:25;102140.62;;;21.03;93.11
54022;BME280;39936;51.058;17.220;2023-08-21T19:35:51;102113.36;;;20.77;95.29
54022;BME280;39936;51.058;17.220;2023-08-21T19:40:09;102124.50;;;20.73;95.12
54022;BME280;39936;51.058;17.220;2023-08-21T19:44:30;102121.87;;;20.60;95.85
54022;BME280;39936;51.058;17.220;2023-08-21T19:48:27;102147.37;;;20.72;97.74
54022;BME280;39936;51.058;17.220;2023-08-21T19:52:12;102123.21;;;20.56;99.93
54022;BME280;39936;51.058;17.220;2023-08-21T19:56:35;102147.70;;;20.57;100.00
54022;BME280;39936;51.058;17.220;2023-08-21T20:00:01;102149.61;;;20.36;100.00
54022;BME280;39936;51.058;17.220;2023-08-21T20:03:56;102152.37;;;20.35;100.00
54022;BME280;39936;51.058;17.220;2023-08-21T20:07:43;102150.97;;;20.35;100.00
54022;BME280;39936;51.058;17.220;2023-08-21T20:11:40;102153.34;;;20.32;100.00
54022;BME280;39936;51.058;17.220;2023-08-21T20:15:27;102151.75;;;20.23;100.00
54022;BME280;39936;51.058;17.220;2023-08-21T20:18:51;102166.16;;;20.20;100.00
54022;BME280;39936;51.058;17.220;2023-08-21T20:22:35;102162.92;;;20.13;100.00
54022;BME280;39936;51.058;17.220;2023-08-21T20:26:52;102144.94;;;19.96;100.00
54022;BME280;39936;51.058;17.220;2023-08-21T20:30:37;102142.55;;;19.87;100.00
54022;BME280;39936;51.058;17.220;2023-08-21T20:34:42;102160.51;;;19.91;100.00
54022;BME280;39936;51.058;17.220;2023-08-21T20:38:44;102165.52;;;19.85;100.00
54022;BME280;39936;51.058;17.220;2023-08-21T20:46:57;102169.87;;;19.74;100.00
54022;BME280;39936;51.058;17.220;2023-08-21T20:50:49;102177.14;;;19.69;100.00
54022;BME280;39936;51.058;17.220;2023-08-21T20:54:35;102174.83;;;19.63;100.00
54022;BME280;39936;51.058;17.220;2023-08-21T20:58:21;102175.48;;;19.54;100.00
54022;BME280;39936;51.058;17.220;2023-08-21T21:02:15;102180.14;;;19.45;100.00
54022;BME280;39936;51.058;17.220;2023-08-21T21:05:58;102183.38;;;19.37;100.00
54022;BME280;39936;51.058;17.220;2023-08-21T21:09:26;102191.06;;;19.34;100.00
54022;BME280;39936;51.058;17.220;2023-08-21T21:13:26;102190.80;;;19.30;100.00
54022;BME280;39936;51.058;17.220;2023-08-21T21:17:24;102192.14;;;19.29;100.00
54022;BME280;39936;51.058;17.220;2023-08-21T21:21:07;102177.45;;;19.24;100.00
54022;BME280;39936;51.058;17.220;2023-08-21T21:25:04;102167.83;;;19.21;100.00
54022;BME280;39936;51.058;17.220;2023-08-21T21:28:56;102167.66;;;19.20;100.00
54022;BME280;39936;51.058;17.220;2023-08-21T21:37:03;102165.50;;;19.15;100.00
54022;BME280;39936;51.058;17.220;2023-08-21T21:40:45;102160.70;;;19.16;100.00
54022;BME280;39936;51.058;17.220;2023-08-21T21:44:30;102165.91;;;19.12;100.00
54022;BME280;39936;51.058;17.220;2023-08-21T21:55:39;102173.91;;;18.98;100.00
54022;BME280;39936;51.058;17.220;2023-08-21T21:59:32;102172.08;;;18.95;100.00
54022;BME280;39936;51.058;17.220;2023-08-21T22:03:24;102172.41;;;18.94;100.00
54022;BME280;39936;51.058;17.220;2023-08-21T22:14:56;102167.44;;;18.72;100.00
54022;BME280;39936;51.058;17.220;2023-08-21T22:18:47;102176.27;;;18.73;100.00
54022;BME280;39936;51.058;17.220;2023-08-21T22:22:50;102181.70;;;18.75;100.00
54022;BME280;39936;51.058;17.220;2023-08-21T22:26:45;102168.78;;;18.64;100.00
54022;BME280;39936;51.058;17.220;2023-08-21T22:31:12;102174.66;;;18.65;100.00
54022;BME280;39936;51.058;17.220;2023-08-21T22:35:13;102169.67;;;18.44;100.00